sensor_id;sensor_type;location;lat;lon;timestamp;P1;durP1;ratioP1;P2;durP2;ratioP2
35223;SDS011;21367;51.930;8.112;2023-02-28T00:00:40;11.85;;;4.72;;
35223;SDS011;21367;51.930;8.112;2023-02-28T00:05:44;17.92;;;4.78;;
35223;SDS011;21367;51.930;8.112;2023-02-28T00:10:48;12.35;;;4.50;;
35223;SDS011;21367;51.930;8.112;2023-02-28T00:16:02;13.32;;;4.47;;
35223;SDS011;21367;51.930;8.112;2023-02-28T00:21:09;12.65;;;4.75;;
35223;SDS011;21367;51.930;8.112;2023-02-28T00:26:12;18.17;;;5.35;;
35223;SDS011;21367;51.930;8.112;2023-02-28T00:31:21;14.60;;;5.03;;
35223;SDS011;21367;51.930;8.112;2023-02-28T00:36:25;17.10;;;5.13;;
35223;SDS011;21367;51.930;8.112;2023-02-28T00:41:30;16.80;;;5.63;;
35223;SDS011;21367;51.930;8.112;2023-02-28T00:46:36;14.85;;;5.68;;
35223;SDS011;21367;51.930;8.112;2023-02-28T00:51:40;14.68;;;5.45;;
35223;SDS011;21367;51.930;8.112;2023-02-28T00:56:43;17.17;;;5.32;;
35223;SDS011;21367;51.930;8.112;2023-02-28T01:01:50;16.40;;;5.75;;
35223;SDS011;21367;51.930;8.112;2023-02-28T01:06:55;20.50;;;5.40;;
35223;SDS011;21367;51.930;8.112;2023-02-28T01:11:59;17.75;;;5.55;;
35223;SDS011;21367;51.930;8.112;2023-02-28T01:17:05;13.95;;;5.60;;
35223;SDS011;21367;51.930;8.112;2023-02-28T01:22:09;13.20;;;5.32;;
35223;SDS011;21367;51.930;8.112;2023-02-28T01:27:16;15.85;;;5.03;;
35223;SDS011;21367;51.930;8.112;2023-02-28T01:32:22;17.17;;;5.47;;
35223;SDS011;21367;51.930;8.112;2023-02-28T01:37:26;10.68;;;4.25;;
35223;SDS011;21367;51.930;8.112;2023-02-28T01:42:30;20.88;;;5.43;;
35223;SDS011;21367;51.930;8.112;2023-02-28T01:47:39;17.27;;;5.40;;
35223;SDS011;21367;51.930;8.112;2023-02-28T01:52:46;13.27;;;5.57;;
35223;SDS011;21367;51.930;8.112;2023-02-28T01:57:52;14.07;;;5.88;;
35223;SDS011;21367;51.930;8.112;2023-02-28T02:03:05;20.52;;;5.60;;
35223;SDS011;21367;51.930;8.112;2023-02-28T02:08:12;11.95;;;4.50;;
35223;SDS011;21367;51.930;8.112;2023-02-28T02:13:23;15.57;;;5.43;;
35223;SDS011;21367;51.930;8.112;2023-02-28T02:18:43;17.70;;;5.40;;
35223;SDS011;21367;51.930;8.112;2023-02-28T02:35:14;16.73;;;5.32;;
35223;SDS011;21367;51.930;8.112;2023-02-28T02:40:22;13.52;;;5.20;;
35223;SDS011;21367;51.930;8.112;2023-02-28T02:45:29;14.80;;;5.07;;
35223;SDS011;21367;51.930;8.112;2023-02-28T02:50:42;12.40;;;5.50;;
35223;SDS011;21367;51.930;8.112;2023-02-28T02:55:49;11.60;;;5.35;;
35223;SDS011;21367;51.930;8.112;2023-02-28T03:00:58;12.65;;;5.95;;
35223;SDS011;21367;51.930;8.112;2023-02-28T03:06:08;15.65;;;5.25;;
35223;SDS011;21367;51.930;8.112;2023-02-28T03:11:12;15.13;;;5.95;;
35223;SDS011;21367;51.930;8.112;2023-02-28T03:16:23;14.18;;;5.45;;
35223;SDS011;21367;51.930;8.112;2023-02-28T03:21:39;11.98;;;5.47;;
35223;SDS011;21367;51.930;8.112;2023-02-28T03:26:50;12.00;;;4.90;;
35223;SDS011;21367;51.930;8.112;2023-02-28T03:32:03;18.83;;;5.35;;
35223;SDS011;21367;51.930;8.112;2023-02-28T03:37:16;11.57;;;4.28;;
35223;SDS011;21367;51.930;8.112;2023-02-28T03:42:24;11.93;;;5.03;;
35223;SDS011;21367;51.930;8.112;2023-02-28T03:47:32;15.25;;;4.97;;
35223;SDS011;21367;51.930;8.112;2023-02-28T03:52:42;12.95;;;5.18;;
35223;SDS011;21367;51.930;8.112;2023-02-28T03:57:54;11.68;;;5.05;;
35223;SDS011;21367;51.930;8.112;2023-02-28T04:03:02;14.98;;;4.68;;
35223;SDS011;21367;51.930;8.112;2023-02-28T04:08:09;11.80;;;4.85;;
35223;SDS011;21367;51.930;8.112;2023-02-28T04:13:13;13.10;;;4.93;;
35223;SDS011;21367;51.930;8.112;2023-02-28T04:18:17;11.43;;;4.65;;
35223;SDS011;21367;51.930;8.112;2023-02-28T04:23:24;16.08;;;5.10;;
35223;SDS011;21367;51.930;8.112;2023-02-28T04:28:27;11.98;;;5.05;;
35223;SDS011;21367;51.930;8.112;2023-02-28T04:33:31;12.60;;;5.22;;
35223;SDS011;21367;51.930;8.112;2023-02-28T04:38:38;12.70;;;5.13;;
35223;SDS011;21367;51.930;8.112;2023-02-28T04:43:42;12.02;;;4.88;;
35223;SDS011;21367;51.930;8.112;2023-02-28T04:48:46;17.38;;;5.20;;
35223;SDS011;21367;51.930;8.112;2023-02-28T04:53:53;11.15;;;5.32;;
35223;SDS011;21367;51.930;8.112;2023-02-28T04:58:57;11.85;;;4.40;;
35223;SDS011;21367;51.930;8.112;2023-02-28T05:04:01;11.30;;;4.80;;
35223;SDS011;21367;51.930;8.112;2023-02-28T05:09:09;14.43;;;4.93;;
35223;SDS011;21367;51.930;8.112;2023-02-28T05:14:14;12.70;;;4.82;;
35223;SDS011;21367;51.930;8.112;2023-02-28T05:19:17;10.75;;;4.78;;
35223;SDS011;21367;51.930;8.112;2023-02-28T05:24:25;12.52;;;5.13;;
35223;SDS011;21367;51.930;8.112;2023-02-28T05:29:29;11.38;;;4.65;;
35223;SDS011;21367;51.930;8.112;2023-02-28T05:34:34;10.02;;;4.45;;
35223;SDS011;21367;51.930;8.112;2023-02-28T05:39:41;10.40;;;4.32;;
35223;SDS011;21367;51.930;8.112;2023-02-28T05:44:45;12.98;;;4.65;;
35223;SDS011;21367;51.930;8.112;2023-02-28T05:49:49;16.55;;;4.53;;
35223;SDS011;21367;51.930;8.112;2023-02-28T05:54:55;13.60;;;4.97;;
35223;SDS011;21367;51.930;8.112;2023-02-28T05:59:59;16.00;;;5.05;;
35223;SDS011;21367;51.930;8.112;2023-02-28T06:05:13;9.15;;;4.13;;
35223;SDS011;21367;51.930;8.112;2023-02-28T06:10:20;19.10;;;5.63;;
35223;SDS011;21367;51.930;8.112;2023-02-28T06:15:24;18.45;;;6.80;;
35223;SDS011;21367;51.930;8.112;2023-02-28T06:20:28;17.52;;;7.43;;
35223;SDS011;21367;51.930;8.112;2023-02-28T06:25:35;20.13;;;9.32;;
35223;SDS011;21367;51.930;8.112;2023-02-28T06:30:38;21.15;;;10.15;;
35223;SDS011;21367;51.930;8.112;2023-02-28T06:35:43;15.07;;;6.50;;
35223;SDS011;21367;51.930;8.112;2023-02-28T06:40:55;10.82;;;5.65;;
35223;SDS011;21367;51.930;8.112;2023-02-28T06:46:00;22.52;;;6.57;;
35223;SDS011;21367;51.930;8.112;2023-02-28T06:51:06;15.15;;;5.85;;
35223;SDS011;21367;51.930;8.112;2023-02-28T06:56:14;21.45;;;6.22;;
35223;SDS011;21367;51.930;8.112;2023-02-28T07:01:20;14.85;;;5.63;;
35223;SDS011;21367;51.930;8.112;2023-02-28T07:06:24;15.80;;;6.57;;
35223;SDS011;21367;51.930;8.112;2023-02-28T07:11:30;13.80;;;5.78;;
35223;SDS011;21367;51.930;8.112;2023-02-28T07:16:35;18.13;;;6.38;;
35223;SDS011;21367;51.930;8.112;2023-02-28T07:21:39;17.87;;;5.80;;
35223;SDS011;21367;51.930;8.112;2023-02-28T07:26:46;18.50;;;6.45;;
35223;SDS011;21367;51.930;8.112;2023-02-28T07:31:50;23.60;;;6.40;;
35223;SDS011;21367;51.930;8.112;2023-02-28T07:36:53;14.65;;;6.22;;
35223;SDS011;21367;51.930;8.112;2023-02-28T07:42:00;14.00;;;6.47;;
35223;SDS011;21367;51.930;8.112;2023-02-28T07:47:09;28.85;;;8.23;;
35223;SDS011;21367;51.930;8.112;2023-02-28T07:52:13;29.70;;;9.98;;
35223;SDS011;21367;51.930;8.112;2023-02-28T07:57:19;25.63;;;8.43;;
35223;SDS011;21367;51.930;8.112;2023-02-28T08:07:27;17.20;;;5.97;;
35223;SDS011;21367;51.930;8.112;2023-02-28T08:12:33;9.98;;;4.40;;
35223;SDS011;21367;51.930;8.112;2023-02-28T08:17:37;11.77;;;3.95;;
35223;SDS011;21367;51.930;8.112;2023-02-28T08:22:41;11.95;;;4.05;;
35223;SDS011;21367;51.930;8.112;2023-02-28T08:27:47;11.00;;;4.40;;
35223;SDS011;21367;51.930;8.112;2023-02-28T08:32:53;13.15;;;4.47;;
35223;SDS011;21367;51.930;8.112;2023-02-28T08:37:57;9.80;;;4.18;;
35223;SDS011;21367;51.930;8.112;2023-02-28T08:43:03;13.02;;;3.60;;
35223;SDS011;21367;51.930;8.112;2023-02-28T08:48:07;14.23;;;3.80;;
35223;SDS011;21367;51.930;8.112;2023-02-28T08:53:10;7.85;;;2.75;;
35223;SDS011;21367;51.930;8.112;2023-02-28T08:58:17;7.20;;;2.60;;
35223;SDS011;21367;51.930;8.112;2023-02-28T09:03:21;6.10;;;2.47;;
35223;SDS011;21367;51.930;8.112;2023-02-28T09:08:25;7.20;;;2.20;;
35223;SDS011;21367;51.930;8.112;2023-02-28T09:13:33;4.37;;;2.10;;
35223;SDS011;21367;51.930;8.112;2023-02-28T09:18:38;7.45;;;1.88;;
35223;SDS011;21367;51.930;8.112;2023-02-28T09:23:43;5.82;;;1.90;;
35223;SDS011;21367;51.930;8.112;2023-02-28T09:28:51;5.43;;;1.75;;
35223;SDS011;21367;51.930;8.112;2023-02-28T09:33:56;7.25;;;2.15;;
35223;SDS011;21367;51.930;8.112;2023-02-28T09:39:01;5.78;;;2.03;;
35223;SDS011;21367;51.930;8.112;2023-02-28T09:44:09;6.15;;;1.70;;
35223;SDS011;21367;51.930;8.112;2023-02-28T09:49:21;4.13;;;1.60;;
35223;SDS011;21367;51.930;8.112;2023-02-28T09:54:29;6.75;;;1.77;;
35223;SDS011;21367;51.930;8.112;2023-02-28T09:59:45;6.63;;;1.45;;
35223;SDS011;21367;51.930;8.112;2023-02-28T10:04:58;4.45;;;1.60;;
35223;SDS011;21367;51.930;8.112;2023-02-28T10:15:26;4.40;;;2.00;;
35223;SDS011;21367;51.930;8.112;2023-02-28T10:20:34;4.82;;;1.70;;
35223;SDS011;21367;51.930;8.112;2023-02-28T10:25:40;3.10;;;1.40;;
35223;SDS011;21367;51.930;8.112;2023-02-28T10:30:51;5.45;;;2.20;;
35223;SDS011;21367;51.930;8.112;2023-02-28T10:35:57;7.13;;;1.80;;
35223;SDS011;21367;51.930;8.112;2023-02-28T10:41:05;6.63;;;1.70;;
35223;SDS011;21367;51.930;8.112;2023-02-28T10:46:15;3.08;;;1.80;;
35223;SDS011;21367;51.930;8.112;2023-02-28T10:51:25;5.30;;;1.77;;
35223;SDS011;21367;51.930;8.112;2023-02-28T10:56:38;4.65;;;1.50;;
35223;SDS011;21367;51.930;8.112;2023-02-28T11:01:45;4.15;;;1.67;;
35223;SDS011;21367;51.930;8.112;2023-02-28T11:06:56;9.15;;;1.92;;
35223;SDS011;21367;51.930;8.112;2023-02-28T11:12:01;5.00;;;1.67;;
35223;SDS011;21367;51.930;8.112;2023-02-28T11:17:14;6.13;;;1.90;;
35223;SDS011;21367;51.930;8.112;2023-02-28T11:22:23;3.00;;;1.70;;
35223;SDS011;21367;51.930;8.112;2023-02-28T11:33:13;8.57;;;1.85;;
35223;SDS011;21367;51.930;8.112;2023-02-28T11:38:24;5.80;;;2.03;;
35223;SDS011;21367;51.930;8.112;2023-02-28T11:43:32;9.57;;;1.92;;
35223;SDS011;21367;51.930;8.112;2023-02-28T11:48:52;7.13;;;1.98;;
35223;SDS011;21367;51.930;8.112;2023-02-28T11:54:08;6.00;;;1.77;;
35223;SDS011;21367;51.930;8.112;2023-02-28T11:59:31;8.93;;;2.05;;
35223;SDS011;21367;51.930;8.112;2023-02-28T12:04:51;7.60;;;2.10;;
35223;SDS011;21367;51.930;8.112;2023-02-28T12:10:05;3.97;;;1.50;;
35223;SDS011;21367;51.930;8.112;2023-02-28T12:15:23;4.07;;;1.85;;
35223;SDS011;21367;51.930;8.112;2023-02-28T12:20:49;12.10;;;1.98;;
35223;SDS011;21367;51.930;8.112;2023-02-28T12:26:01;4.07;;;1.65;;
35223;SDS011;21367;51.930;8.112;2023-02-28T12:31:11;6.70;;;2.00;;
35223;SDS011;21367;51.930;8.112;2023-02-28T12:36:22;5.82;;;1.60;;
35223;SDS011;21367;51.930;8.112;2023-02-28T12:41:29;5.13;;;1.60;;
35223;SDS011;21367;51.930;8.112;2023-02-28T12:46:41;3.67;;;1.55;;
35223;SDS011;21367;51.930;8.112;2023-02-28T12:51:52;6.80;;;1.75;;
35223;SDS011;21367;51.930;8.112;2023-02-28T12:56:57;3.85;;;1.50;;
35223;SDS011;21367;51.930;8.112;2023-02-28T13:02:17;3.72;;;1.40;;
35223;SDS011;21367;51.930;8.112;2023-02-28T13:13:19;7.85;;;1.73;;
35223;SDS011;21367;51.930;8.112;2023-02-28T13:18:28;4.25;;;1.83;;
35223;SDS011;21367;51.930;8.112;2023-02-28T13:23:41;5.53;;;2.22;;
35223;SDS011;21367;51.930;8.112;2023-02-28T13:29:03;4.22;;;2.08;;
35223;SDS011;21367;51.930;8.112;2023-02-28T13:34:24;6.70;;;2.33;;
35223;SDS011;21367;51.930;8.112;2023-02-28T13:50:32;5.70;;;2.30;;
35223;SDS011;21367;51.930;8.112;2023-02-28T13:55:38;6.18;;;2.15;;
35223;SDS011;21367;51.930;8.112;2023-02-28T14:00:55;6.57;;;2.15;;
35223;SDS011;21367;51.930;8.112;2023-02-28T14:06:14;6.43;;;1.98;;
35223;SDS011;21367;51.930;8.112;2023-02-28T14:11:32;5.05;;;2.05;;
35223;SDS011;21367;51.930;8.112;2023-02-28T14:16:39;4.25;;;2.05;;
35223;SDS011;21367;51.930;8.112;2023-02-28T14:21:50;7.93;;;2.00;;
35223;SDS011;21367;51.930;8.112;2023-02-28T14:27:14;13.10;;;2.35;;
35223;SDS011;21367;51.930;8.112;2023-02-28T14:32:27;7.68;;;2.28;;
35223;SDS011;21367;51.930;8.112;2023-02-28T14:37:39;8.30;;;2.25;;
35223;SDS011;21367;51.930;8.112;2023-02-28T14:42:46;6.78;;;2.03;;
35223;SDS011;21367;51.930;8.112;2023-02-28T14:47:57;7.85;;;2.90;;
35223;SDS011;21367;51.930;8.112;2023-02-28T14:53:04;13.27;;;2.15;;
35223;SDS011;21367;51.930;8.112;2023-02-28T14:58:22;6.63;;;2.47;;
35223;SDS011;21367;51.930;8.112;2023-02-28T15:03:30;7.95;;;2.65;;
35223;SDS011;21367;51.930;8.112;2023-02-28T15:08:38;6.22;;;2.50;;
35223;SDS011;21367;51.930;8.112;2023-02-28T15:13:42;5.40;;;2.03;;
35223;SDS011;21367;51.930;8.112;2023-02-28T15:18:49;6.63;;;2.58;;
35223;SDS011;21367;51.930;8.112;2023-02-28T15:23:59;7.95;;;2.20;;
35223;SDS011;21367;51.930;8.112;2023-02-28T15:29:08;5.03;;;2.40;;
35223;SDS011;21367;51.930;8.112;2023-02-28T15:34:18;7.00;;;2.92;;
35223;SDS011;21367;51.930;8.112;2023-02-28T15:39:27;6.90;;;2.60;;
35223;SDS011;21367;51.930;8.112;2023-02-28T15:44:33;6.53;;;1.95;;
35223;SDS011;21367;51.930;8.112;2023-02-28T15:49:38;8.00;;;2.22;;
35223;SDS011;21367;51.930;8.112;2023-02-28T15:54:50;9.07;;;2.70;;
35223;SDS011;21367;51.930;8.112;2023-02-28T15:59:55;4.15;;;2.22;;
35223;SDS011;21367;51.930;8.112;2023-02-28T16:05:18;6.18;;;2.80;;
35223;SDS011;21367;51.930;8.112;2023-02-28T16:10:31;5.93;;;2.50;;
35223;SDS011;21367;51.930;8.112;2023-02-28T16:15:35;7.18;;;2.70;;
35223;SDS011;21367;51.930;8.112;2023-02-28T16:20:43;7.50;;;2.55;;
35223;SDS011;21367;51.930;8.112;2023-02-28T16:25:50;8.23;;;2.45;;
35223;SDS011;21367;51.930;8.112;2023-02-28T16:35:57;5.75;;;1.88;;
35223;SDS011;21367;51.930;8.112;2023-02-28T16:41:04;8.00;;;2.40;;
35223;SDS011;21367;51.930;8.112;2023-02-28T16:46:09;6.30;;;2.33;;
35223;SDS011;21367;51.930;8.112;2023-02-28T16:51:14;9.67;;;2.73;;
35223;SDS011;21367;51.930;8.112;2023-02-28T16:56:22;7.82;;;3.08;;
35223;SDS011;21367;51.930;8.112;2023-02-28T17:01:27;5.47;;;2.42;;
35223;SDS011;21367;51.930;8.112;2023-02-28T17:06:32;6.38;;;2.92;;
35223;SDS011;21367;51.930;8.112;2023-02-28T17:11:38;7.72;;;3.20;;
35223;SDS011;21367;51.930;8.112;2023-02-28T17:21:46;11.23;;;4.22;;
35223;SDS011;21367;51.930;8.112;2023-02-28T17:26:53;12.57;;;5.10;;
35223;SDS011;21367;51.930;8.112;2023-02-28T17:31:57;8.25;;;3.72;;
35223;SDS011;21367;51.930;8.112;2023-02-28T17:37:01;18.77;;;3.50;;
35223;SDS011;21367;51.930;8.112;2023-02-28T17:42:07;12.93;;;4.60;;
35223;SDS011;21367;51.930;8.112;2023-02-28T17:52:15;31.23;;;7.90;;
35223;SDS011;21367;51.930;8.112;2023-02-28T17:57:21;28.95;;;8.95;;
35223;SDS011;21367;51.930;8.112;2023-02-28T18:02:25;25.63;;;7.80;;
35223;SDS011;21367;51.930;8.112;2023-02-28T18:07:29;17.80;;;5.95;;
35223;SDS011;21367;51.930;8.112;2023-02-28T18:12:35;12.68;;;4.80;;
35223;SDS011;21367;51.930;8.112;2023-02-28T18:17:39;10.13;;;4.72;;
35223;SDS011;21367;51.930;8.112;2023-02-28T18:22:43;10.70;;;4.30;;
35223;SDS011;21367;51.930;8.112;2023-02-28T18:27:50;9.48;;;3.50;;
35223;SDS011;21367;51.930;8.112;2023-02-28T18:32:58;14.57;;;4.82;;
35223;SDS011;21367;51.930;8.112;2023-02-28T18:38:04;14.32;;;5.60;;
35223;SDS011;21367;51.930;8.112;2023-02-28T18:43:12;12.93;;;5.47;;
35223;SDS011;21367;51.930;8.112;2023-02-28T18:53:22;24.70;;;9.80;;
35223;SDS011;21367;51.930;8.112;2023-02-28T18:58:29;25.58;;;10.32;;
35223;SDS011;21367;51.930;8.112;2023-02-28T19:03:32;25.05;;;10.75;;
35223;SDS011;21367;51.930;8.112;2023-02-28T19:08:36;42.20;;;13.25;;
35223;SDS011;21367;51.930;8.112;2023-02-28T19:13:43;40.60;;;17.55;;
35223;SDS011;21367;51.930;8.112;2023-02-28T19:18:47;53.30;;;20.98;;
35223;SDS011;21367;51.930;8.112;2023-02-28T19:23:51;56.00;;;20.20;;
35223;SDS011;21367;51.930;8.112;2023-02-28T19:29:00;33.15;;;13.02;;
35223;SDS011;21367;51.930;8.112;2023-02-28T19:34:04;23.45;;;9.23;;
35223;SDS011;21367;51.930;8.112;2023-02-28T19:39:08;18.92;;;8.65;;
35223;SDS011;21367;51.930;8.112;2023-02-28T19:44:14;18.52;;;7.72;;
35223;SDS011;21367;51.930;8.112;2023-02-28T19:54:21;17.40;;;6.43;;
35223;SDS011;21367;51.930;8.112;2023-02-28T19:59:36;21.10;;;6.43;;
35223;SDS011;21367;51.930;8.112;2023-02-28T20:09:43;16.67;;;7.78;;
35223;SDS011;21367;51.930;8.112;2023-02-28T20:14:49;27.75;;;7.53;;
35223;SDS011;21367;51.930;8.112;2023-02-28T20:19:55;14.88;;;6.72;;
35223;SDS011;21367;51.930;8.112;2023-02-28T20:24:59;12.02;;;6.78;;
35223;SDS011;21367;51.930;8.112;2023-02-28T20:30:05;19.90;;;8.23;;
35223;SDS011;21367;51.930;8.112;2023-02-28T20:35:10;26.20;;;11.85;;
35223;SDS011;21367;51.930;8.112;2023-02-28T20:40:14;32.70;;;12.95;;
35223;SDS011;21367;51.930;8.112;2023-02-28T20:45:20;19.45;;;9.77;;
35223;SDS011;21367;51.930;8.112;2023-02-28T20:50:24;14.27;;;6.78;;
35223;SDS011;21367;51.930;8.112;2023-02-28T20:55:28;14.27;;;6.15;;
35223;SDS011;21367;51.930;8.112;2023-02-28T21:00:34;12.77;;;6.38;;
35223;SDS011;21367;51.930;8.112;2023-02-28T21:05:38;13.25;;;5.90;;
35223;SDS011;21367;51.930;8.112;2023-02-28T21:10:42;16.98;;;6.63;;
35223;SDS011;21367;51.930;8.112;2023-02-28T21:15:48;19.08;;;6.80;;
35223;SDS011;21367;51.930;8.112;2023-02-28T21:26:00;14.32;;;6.20;;
35223;SDS011;21367;51.930;8.112;2023-02-28T21:31:07;20.98;;;6.55;;
35223;SDS011;21367;51.930;8.112;2023-02-28T21:36:14;14.45;;;6.55;;
35223;SDS011;21367;51.930;8.112;2023-02-28T21:41:20;13.32;;;6.85;;
35223;SDS011;21367;51.930;8.112;2023-02-28T21:46:30;27.25;;;8.98;;
35223;SDS011;21367;51.930;8.112;2023-02-28T21:56:37;27.23;;;10.35;;
35223;SDS011;21367;51.930;8.112;2023-02-28T22:01:44;20.30;;;7.53;;
35223;SDS011;21367;51.930;8.112;2023-02-28T22:06:48;16.88;;;7.50;;
35223;SDS011;21367;51.930;8.112;2023-02-28T22:11:53;20.13;;;7.40;;
35223;SDS011;21367;51.930;8.112;2023-02-28T22:17:01;15.60;;;6.65;;
35223;SDS011;21367;51.930;8.112;2023-02-28T22:22:05;14.00;;;6.47;;
35223;SDS011;21367;51.930;8.112;2023-02-28T22:27:09;14.02;;;6.05;;
35223;SDS011;21367;51.930;8.112;2023-02-28T22:32:16;22.60;;;6.15;;
35223;SDS011;21367;51.930;8.112;2023-02-28T22:37:20;13.13;;;6.28;;
35223;SDS011;21367;51.930;8.112;2023-02-28T22:42:23;17.15;;;6.93;;
35223;SDS011;21367;51.930;8.112;2023-02-28T22:47:29;20.90;;;7.03;;
35223;SDS011;21367;51.930;8.112;2023-02-28T22:57:36;20.40;;;7.22;;
35223;SDS011;21367;51.930;8.112;2023-02-28T23:02:43;19.95;;;8.13;;
35223;SDS011;21367;51.930;8.112;2023-02-28T23:07:47;15.40;;;7.00;;
35223;SDS011;21367;51.930;8.112;2023-02-28T23:12:51;19.25;;;8.07;;
35223;SDS011;21367;51.930;8.112;2023-02-28T23:17:57;20.17;;;7.68;;
35223;SDS011;21367;51.930;8.112;2023-02-28T23:23:01;17.52;;;7.20;;
35223;SDS011;21367;51.930;8.112;2023-02-28T23:28:04;19.27;;;7.28;;
35223;SDS011;21367;51.930;8.112;2023-02-28T23:33:12;16.80;;;7.70;;
35223;SDS011;21367;51.930;8.112;2023-02-28T23:38:15;18.50;;;7.30;;
35223;SDS011;21367;51.930;8.112;2023-02-28T23:43:19;14.18;;;6.75;;
35223;SDS011;21367;51.930;8.112;2023-02-28T23:48:26;18.10;;;7.47;;
35223;SDS011;21367;51.930;8.112;2023-02-28T23:53:30;18.27;;;7.40;;
35223;SDS011;21367;51.930;8.112;2023-02-28T23:58:34;16.95;;;7.28;;
